createdAt,value
2017-07-20T00:02:03.526Z,19.67
2017-07-20T00:04:29.625Z,19.13
2017-07-20T00:06:55.720Z,19.70
2017-07-20T00:09:21.841Z,18.93
2017-07-20T00:11:47.928Z,18.70
2017-07-20T00:14:14.046Z,20.30
2017-07-20T00:16:40.149Z,19.63
2017-07-20T00:19:06.256Z,19.80
2017-07-20T00:21:32.409Z,19.43
2017-07-20T00:23:58.512Z,17.87
2017-07-20T00:26:24.639Z,19.20
2017-07-20T00:28:50.755Z,19.80
2017-07-20T00:31:16.858Z,19.73
2017-07-20T00:33:43.000Z,19.70
2017-07-20T00:36:09.832Z,20.53
2017-07-20T00:38:36.773Z,20.50
2017-07-20T00:41:02.893Z,20.47
2017-07-20T00:43:29.018Z,20.20
2017-07-20T00:45:55.113Z,22.87
2017-07-20T00:48:21.226Z,22.10
2017-07-20T00:50:47.341Z,21.70
2017-07-20T00:53:13.517Z,24.40
2017-07-20T00:55:39.648Z,23.50
2017-07-20T00:58:05.760Z,26.20
2017-07-20T01:00:31.917Z,25.27
2017-07-20T01:02:58.037Z,24.60
2017-07-20T01:05:24.185Z,27.20
2017-07-20T01:07:50.268Z,26.17
2017-07-20T01:10:16.414Z,28.27
2017-07-20T01:12:42.546Z,27.57
2017-07-20T01:15:08.653Z,28.17
2017-07-20T01:17:35.525Z,27.33
2017-07-20T01:20:01.634Z,29.73
2017-07-20T01:22:27.789Z,29.10
2017-07-20T01:24:53.877Z,28.77
2017-07-20T01:27:20.333Z,27.53
2017-07-20T01:29:47.172Z,28.77
2017-07-20T01:32:13.409Z,28.00
2017-07-20T01:34:39.522Z,29.27
2017-07-20T01:37:05.637Z,26.83
2017-07-20T01:39:31.805Z,26.80
2017-07-20T01:41:57.932Z,26.63
2017-07-20T01:44:24.812Z,26.63
2017-07-20T01:46:50.946Z,27.90
2017-07-20T01:49:17.062Z,28.40
2017-07-20T01:51:43.198Z,28.60
2017-07-20T01:54:09.409Z,29.00
2017-07-20T01:56:35.557Z,28.33
2017-07-20T01:59:01.658Z,25.60
2017-07-20T02:01:28.597Z,25.07
2017-07-20T02:03:54.718Z,26.00
2017-07-20T02:06:20.853Z,24.83
2017-07-20T02:08:46.993Z,25.23
2017-07-20T02:11:13.192Z,25.63
2017-07-20T02:13:39.304Z,27.00
2017-07-20T02:16:05.433Z,26.17
2017-07-20T02:18:31.534Z,29.17
2017-07-20T02:20:57.673Z,27.33
2017-07-20T02:23:24.509Z,23.97
2017-07-20T02:28:21.601Z,26.00
2017-07-20T02:30:47.633Z,24.20
2017-07-20T02:33:13.672Z,27.40
2017-07-20T02:35:40.519Z,27.40
2017-07-20T02:38:06.545Z,26.80
2017-07-20T02:40:32.577Z,27.60
2017-07-20T02:42:58.620Z,29.10
2017-07-20T02:45:24.677Z,33.57
2017-07-20T02:47:50.705Z,31.60
2017-07-20T02:50:16.804Z,34.37
2017-07-20T02:52:42.849Z,32.43
2017-07-20T02:55:08.877Z,31.43
2017-07-20T02:57:35.676Z,30.30
2017-07-20T03:00:01.700Z,31.93
2017-07-20T03:02:27.783Z,34.20
2017-07-20T03:04:53.821Z,33.40
2017-07-20T03:07:19.880Z,35.23
2017-07-20T03:09:45.972Z,32.73
2017-07-20T03:12:12.740Z,34.00
2017-07-20T03:14:38.764Z,36.50
2017-07-20T03:17:04.773Z,37.80
2017-07-20T03:19:30.817Z,38.17
2017-07-20T03:22:09.057Z,37.97
2017-07-20T03:24:35.143Z,34.70
2017-07-20T03:27:01.152Z,33.50
2017-07-20T03:29:27.205Z,35.07
2017-07-20T03:31:53.236Z,39.97
2017-07-20T03:34:19.284Z,38.20
2017-07-20T03:36:45.404Z,36.43
2017-07-20T03:39:11.455Z,32.80
2017-07-20T03:41:37.489Z,35.90
2017-07-20T03:44:03.633Z,37.17
2017-07-20T03:46:29.653Z,36.97
2017-07-20T03:48:55.712Z,38.13
2017-07-20T03:51:21.761Z,38.10
2017-07-20T03:53:47.777Z,35.30
2017-07-20T03:56:13.828Z,34.70
2017-07-20T03:58:39.842Z,35.77
2017-07-20T04:01:05.877Z,36.47
2017-07-20T04:03:31.893Z,35.77
2017-07-20T04:05:57.937Z,34.70
2017-07-20T04:08:23.957Z,34.33
2017-07-20T04:10:50.008Z,32.27
2017-07-20T04:13:16.053Z,33.07
2017-07-20T04:15:42.840Z,31.83
2017-07-20T04:18:08.864Z,32.97
2017-07-20T04:20:34.900Z,29.40
2017-07-20T04:23:00.947Z,28.77
2017-07-20T04:25:26.993Z,25.87
2017-07-20T04:27:53.042Z,25.50
2017-07-20T04:30:19.113Z,25.30
2017-07-20T04:32:45.139Z,24.17
2017-07-20T04:35:11.304Z,24.87
2017-07-20T04:37:37.355Z,25.23
2017-07-20T04:40:03.392Z,24.87
2017-07-20T04:42:29.494Z,23.30
2017-07-20T04:44:56.271Z,22.87
2017-07-20T04:47:22.340Z,24.73
2017-07-20T04:49:48.388Z,23.10
2017-07-20T04:52:14.404Z,23.70
2017-07-20T04:54:40.510Z,24.10
2017-07-20T04:57:06.561Z,24.03
2017-07-20T04:59:32.705Z,23.23
2017-07-20T05:01:58.729Z,24.50
2017-07-20T05:04:24.779Z,24.60
2017-07-20T05:06:50.814Z,23.20
2017-07-20T05:09:16.837Z,20.20
2017-07-20T05:11:42.953Z,21.33
2017-07-20T05:14:08.981Z,22.57
2017-07-20T05:16:35.082Z,23.00
2017-07-20T05:19:01.121Z,22.60
2017-07-20T05:21:27.140Z,22.37
2017-07-20T05:23:53.176Z,21.20
2017-07-20T05:26:19.189Z,21.40
2017-07-20T05:28:45.228Z,20.90
2017-07-20T05:31:12.055Z,20.27
2017-07-20T05:33:38.203Z,18.57
2017-07-20T05:36:04.247Z,19.27
2017-07-20T05:38:30.309Z,18.70
2017-07-20T05:40:56.380Z,17.10
2017-07-20T05:43:22.425Z,17.17
2017-07-20T05:45:48.506Z,17.10
2017-07-20T05:48:15.282Z,15.97
2017-07-20T05:50:41.301Z,16.60
2017-07-20T05:53:07.337Z,16.20
2017-07-20T05:55:33.368Z,17.90
2017-07-20T05:57:59.532Z,15.93
2017-07-20T06:00:25.560Z,16.33
2017-07-20T06:02:51.785Z,16.73
2017-07-20T06:05:17.845Z,16.60
2017-07-20T06:07:43.868Z,15.33
2017-07-20T06:10:09.916Z,15.53
2017-07-20T06:12:36.256Z,16.10
2017-07-20T06:15:03.120Z,16.27
2017-07-20T06:19:52.200Z,15.67
2017-07-20T06:22:18.245Z,15.30
2017-07-20T06:24:44.305Z,15.23
2017-07-20T06:27:10.459Z,15.37
2017-07-20T06:29:36.713Z,14.60
2017-07-20T06:32:02.898Z,15.77
2017-07-20T06:34:29.176Z,14.90
2017-07-20T06:36:55.234Z,16.40
2017-07-20T06:39:21.406Z,14.43
2017-07-20T06:41:47.458Z,13.17
2017-07-20T06:44:13.631Z,15.40
2017-07-20T06:46:39.739Z,15.10
2017-07-20T06:49:05.861Z,14.93
2017-07-20T06:51:31.925Z,15.20
2017-07-20T06:53:58.047Z,15.27
2017-07-20T06:56:24.153Z,14.90
2017-07-20T06:58:50.194Z,15.53
2017-07-20T07:01:16.253Z,15.37
2017-07-20T07:03:42.403Z,15.13
2017-07-20T07:06:08.477Z,13.90
2017-07-20T07:08:34.527Z,14.10
2017-07-20T07:11:00.657Z,14.07
2017-07-20T07:13:26.738Z,13.13
2017-07-20T07:15:52.904Z,12.80
2017-07-20T07:18:18.982Z,13.43
2017-07-20T07:20:45.794Z,12.60
2017-07-20T07:23:11.850Z,12.17
2017-07-20T07:25:37.898Z,11.73
2017-07-20T07:28:04.034Z,11.20
2017-07-20T07:30:30.151Z,10.43
2017-07-20T07:32:56.272Z,11.10
2017-07-20T07:35:22.369Z,11.43
2017-07-20T07:37:48.489Z,11.20
2017-07-20T07:40:14.533Z,11.17
2017-07-20T07:42:40.626Z,12.63
2017-07-20T07:45:06.686Z,11.50
2017-07-20T07:47:32.782Z,11.07
2017-07-20T07:49:58.938Z,11.20
2017-07-20T07:52:25.075Z,10.23
2017-07-20T07:54:51.124Z,10.27
2017-07-20T07:57:17.319Z,12.00
2017-07-20T07:59:43.390Z,10.93
2017-07-20T08:02:09.443Z,12.53
2017-07-20T08:04:36.250Z,13.03
2017-07-20T08:07:02.345Z,11.57
2017-07-20T08:09:28.473Z,11.40
2017-07-20T08:11:54.513Z,11.10
2017-07-20T08:14:20.577Z,11.70
2017-07-20T08:16:46.609Z,9.93
2017-07-20T08:19:13.427Z,9.90
2017-07-20T08:21:39.507Z,9.57
2017-07-20T08:24:05.581Z,10.10
2017-07-20T08:26:31.624Z,10.70
2017-07-20T08:28:58.409Z,9.03
2017-07-20T08:31:24.488Z,9.00
2017-07-20T08:33:51.277Z,9.33
2017-07-20T08:36:17.378Z,10.13
2017-07-20T08:38:43.445Z,10.27
2017-07-20T08:41:09.514Z,10.63
2017-07-20T08:43:35.545Z,10.20
2017-07-20T08:46:01.589Z,9.60
2017-07-20T08:48:27.639Z,11.00
2017-07-20T08:50:53.704Z,10.77
2017-07-20T08:53:20.506Z,10.73
2017-07-20T08:55:46.570Z,10.33
2017-07-20T08:58:13.594Z,10.17
2017-07-20T09:00:39.687Z,12.10
2017-07-20T09:03:05.733Z,10.83
2017-07-20T09:05:31.801Z,12.00
2017-07-20T09:07:57.854Z,12.80
2017-07-20T09:10:23.917Z,13.20
2017-07-20T09:12:49.985Z,12.23
2017-07-20T09:15:16.034Z,14.03
2017-07-20T09:17:42.122Z,13.00
2017-07-20T09:20:08.206Z,11.97
2017-07-20T09:22:34.262Z,12.53
2017-07-20T09:25:01.079Z,11.40
2017-07-20T09:27:27.148Z,10.60
2017-07-20T09:29:53.223Z,10.10
2017-07-20T09:32:19.342Z,11.73
2017-07-20T09:34:45.411Z,10.97
2017-07-20T09:37:12.225Z,9.47
2017-07-20T09:39:38.274Z,10.53
2017-07-20T09:42:05.091Z,9.10
2017-07-20T09:44:31.141Z,10.50
2017-07-20T09:46:57.954Z,9.53
2017-07-20T09:49:23.993Z,10.50
2017-07-20T09:51:50.837Z,9.13
2017-07-20T09:54:17.625Z,11.57
2017-07-20T09:56:44.138Z,10.87
2017-07-20T09:59:10.195Z,11.17
2017-07-20T10:01:36.257Z,8.37
2017-07-20T10:04:02.332Z,10.30
2017-07-20T10:06:28.490Z,8.87
2017-07-20T10:08:54.550Z,7.43
2017-07-20T10:11:21.358Z,9.03
2017-07-20T10:13:47.414Z,8.30
2017-07-20T10:16:13.453Z,9.20
2017-07-20T10:18:39.533Z,7.50
2017-07-20T10:21:05.589Z,7.70
2017-07-20T10:23:32.386Z,7.57
2017-07-20T10:25:58.425Z,9.43
2017-07-20T10:28:24.482Z,8.77
2017-07-20T10:30:50.642Z,9.60
2017-07-20T10:33:16.771Z,9.63
2017-07-20T10:35:42.834Z,11.20
2017-07-20T10:38:08.918Z,9.10
2017-07-20T10:40:35.014Z,9.77
2017-07-20T10:43:01.083Z,10.90
2017-07-20T10:45:27.141Z,11.00
2017-07-20T10:47:54.022Z,11.60
2017-07-20T10:50:20.058Z,12.23
2017-07-20T10:52:46.137Z,11.10
2017-07-20T10:55:27.142Z,11.13
2017-07-20T10:57:53.219Z,11.40
2017-07-20T11:00:19.274Z,12.67
2017-07-20T11:02:45.334Z,12.80
2017-07-20T11:05:11.426Z,13.20
2017-07-20T11:07:37.498Z,12.20
2017-07-20T11:10:03.554Z,13.63
2017-07-20T11:12:30.438Z,11.20
2017-07-20T11:14:56.478Z,11.97
2017-07-20T11:17:22.539Z,13.17
2017-07-20T11:19:48.598Z,11.87
2017-07-20T11:22:14.693Z,12.40
2017-07-20T11:24:41.503Z,11.70
2017-07-20T11:27:07.570Z,12.17
2017-07-20T11:29:34.419Z,11.63
2017-07-20T11:32:00.478Z,11.40
2017-07-20T11:34:26.543Z,11.90
2017-07-20T11:36:52.601Z,10.67
2017-07-20T11:39:18.690Z,9.90
2017-07-20T11:41:44.770Z,10.07
2017-07-20T11:44:10.826Z,10.13
2017-07-20T11:46:36.886Z,8.30
2017-07-20T11:49:03.702Z,9.40
2017-07-20T11:51:29.752Z,9.33
2017-07-20T11:53:55.818Z,9.40
2017-07-20T11:56:21.914Z,10.47
2017-07-20T11:58:48.270Z,9.80
2017-07-20T12:01:14.331Z,9.67
2017-07-20T12:03:40.400Z,7.97
2017-07-20T12:06:06.445Z,7.90
2017-07-20T12:08:32.512Z,7.40
2017-07-20T12:10:58.557Z,7.73
2017-07-20T12:13:24.624Z,8.10
2017-07-20T12:15:50.670Z,8.37
2017-07-20T12:18:16.733Z,8.40
2017-07-20T12:20:42.786Z,7.43
2017-07-20T12:23:08.869Z,7.43
2017-07-20T12:25:35.655Z,8.50
2017-07-20T12:28:01.726Z,6.70
2017-07-20T12:30:28.574Z,5.67
2017-07-20T12:32:55.389Z,6.90
2017-07-20T12:35:21.445Z,6.23
2017-07-20T12:37:47.503Z,6.50
2017-07-20T12:40:13.567Z,6.27
2017-07-20T12:42:39.625Z,5.67
2017-07-20T12:45:05.695Z,6.47
2017-07-20T12:47:31.749Z,7.00
2017-07-20T12:49:57.817Z,6.07
2017-07-20T12:52:23.875Z,5.93
2017-07-20T12:54:49.958Z,5.40
2017-07-20T12:57:16.042Z,5.70
2017-07-20T12:59:42.118Z,7.17
2017-07-20T13:02:08.174Z,7.37
2017-07-20T13:04:34.235Z,6.63
2017-07-20T13:07:01.026Z,7.93
2017-07-20T13:09:27.094Z,7.60
2017-07-20T13:11:53.138Z,7.97
2017-07-20T13:14:19.208Z,7.40
2017-07-20T13:16:45.249Z,7.07
2017-07-20T13:19:12.097Z,7.20
2017-07-20T13:21:38.149Z,7.90
2017-07-20T13:24:04.213Z,7.60
2017-07-20T13:26:30.281Z,9.00
2017-07-20T13:28:57.070Z,7.97
2017-07-20T13:31:23.154Z,7.37
2017-07-20T13:33:49.943Z,7.40
2017-07-20T13:36:16.008Z,7.57
2017-07-20T13:38:42.045Z,8.33
2017-07-20T13:41:08.117Z,7.10
2017-07-20T13:43:34.168Z,6.50
2017-07-20T13:46:00.228Z,6.80
2017-07-20T13:48:26.314Z,8.07
2017-07-20T13:50:52.401Z,7.87
2017-07-20T13:53:18.512Z,7.70
2017-07-20T13:55:44.561Z,7.30
2017-07-20T13:58:10.626Z,7.23
2017-07-20T14:00:36.802Z,6.97
2017-07-20T14:03:02.866Z,7.27
2017-07-20T14:05:29.070Z,6.20
2017-07-20T14:07:55.122Z,7.10
2017-07-20T14:10:21.198Z,7.30
2017-07-20T14:12:47.267Z,6.33
2017-07-20T14:15:13.334Z,6.70
2017-07-20T14:17:39.366Z,7.50
2017-07-20T14:20:05.478Z,6.97
2017-07-20T14:22:31.534Z,7.20
2017-07-20T14:24:57.621Z,7.37
2017-07-20T14:27:23.709Z,6.10
2017-07-20T14:29:49.849Z,5.07
2017-07-20T14:32:15.926Z,7.20
2017-07-20T14:34:42.064Z,6.30
2017-07-20T14:37:08.099Z,6.50
2017-07-20T14:39:34.154Z,7.00
2017-07-20T14:42:00.199Z,6.73
2017-07-20T14:44:26.250Z,6.63
2017-07-20T14:46:52.331Z,6.83
2017-07-20T14:49:19.233Z,7.17
2017-07-20T14:51:45.335Z,6.73
2017-07-20T14:54:11.406Z,6.70
2017-07-20T14:56:37.465Z,7.57
2017-07-20T14:59:04.262Z,6.73
2017-07-20T15:01:30.308Z,7.13
2017-07-20T15:03:56.446Z,6.80
2017-07-20T15:06:23.221Z,6.77
2017-07-20T15:08:49.274Z,6.77
2017-07-20T15:11:15.363Z,8.17
2017-07-20T15:13:41.510Z,7.30
2017-07-20T15:16:07.588Z,8.30
2017-07-20T15:18:34.418Z,7.43
2017-07-20T15:21:01.253Z,6.30
2017-07-20T15:23:27.342Z,6.10
2017-07-20T15:25:53.462Z,7.93
2017-07-20T15:28:19.586Z,7.27
2017-07-20T15:30:45.646Z,6.67
2017-07-20T15:33:11.703Z,6.60
2017-07-20T15:35:38.554Z,8.67
2017-07-20T15:38:04.705Z,8.00
2017-07-20T15:40:30.893Z,7.77
2017-07-20T15:42:57.803Z,7.60
2017-07-20T15:45:23.849Z,5.80
2017-07-20T15:47:50.394Z,6.03
2017-07-20T15:50:17.263Z,6.50
2017-07-20T15:52:43.328Z,5.47
2017-07-20T15:55:09.396Z,6.23
2017-07-20T15:57:43.038Z,6.53
2017-07-20T16:00:09.109Z,5.90
2017-07-20T16:02:35.169Z,5.80
2017-07-20T16:05:01.231Z,5.27
2017-07-20T16:07:27.386Z,5.37
2017-07-20T16:09:53.433Z,6.20
2017-07-20T16:12:19.544Z,5.80
2017-07-20T16:14:45.606Z,7.17
2017-07-20T16:17:11.747Z,6.53
2017-07-20T16:19:37.794Z,6.60
2017-07-20T16:22:03.857Z,8.43
2017-07-20T16:24:30.030Z,7.50
2017-07-20T16:26:56.090Z,7.30
2017-07-20T16:29:22.154Z,7.83
2017-07-20T16:31:48.194Z,8.17
2017-07-20T16:34:14.462Z,8.43
2017-07-20T16:36:41.281Z,8.80
2017-07-20T16:39:07.334Z,9.00
2017-07-20T16:41:34.154Z,8.37
2017-07-20T16:44:00.201Z,8.70
2017-07-20T16:46:26.262Z,8.77
2017-07-20T16:48:52.299Z,8.80
2017-07-20T16:51:18.621Z,8.33
2017-07-20T16:53:44.662Z,8.70
2017-07-20T16:56:10.754Z,8.07
2017-07-20T16:58:36.830Z,8.80
2017-07-20T17:01:02.893Z,7.33
2017-07-20T17:03:28.990Z,6.57
2017-07-20T17:05:55.798Z,6.90
2017-07-20T17:08:21.865Z,7.07
2017-07-20T17:10:48.666Z,6.00
2017-07-20T17:13:14.756Z,6.60
2017-07-20T17:15:40.827Z,6.40
2017-07-20T17:18:06.909Z,6.80
2017-07-20T17:20:32.957Z,6.20
2017-07-20T17:22:59.077Z,6.70
2017-07-20T17:25:25.126Z,6.20
2017-07-20T17:27:51.215Z,6.00
2017-07-20T17:30:17.304Z,5.90
2017-07-20T17:32:43.401Z,4.80
2017-07-20T17:35:09.449Z,3.97
2017-07-20T17:37:36.229Z,4.50
2017-07-20T17:40:02.310Z,4.30
2017-07-20T17:42:28.372Z,3.70
2017-07-20T17:44:54.665Z,3.47
2017-07-20T17:47:21.469Z,3.80
2017-07-20T17:49:47.549Z,3.60
2017-07-20T17:52:13.598Z,3.97
2017-07-20T17:54:39.650Z,3.53
2017-07-20T17:57:05.726Z,4.20
2017-07-20T17:59:31.804Z,3.63
2017-07-20T18:01:57.885Z,3.87
2017-07-20T18:04:23.942Z,3.07
2017-07-20T18:06:50.039Z,3.30
2017-07-20T18:09:16.107Z,3.60
2017-07-20T18:11:42.179Z,3.43
2017-07-20T18:14:08.222Z,3.40
2017-07-20T18:16:34.267Z,3.47
2017-07-20T18:19:00.334Z,3.90
2017-07-20T18:21:26.426Z,3.40
2017-07-20T18:23:52.498Z,3.60
2017-07-20T18:26:18.566Z,3.30
2017-07-20T18:28:44.669Z,3.10
2017-07-20T18:31:10.713Z,4.20
2017-07-20T18:33:36.786Z,4.07
2017-07-20T18:36:02.849Z,3.67
2017-07-20T18:38:28.942Z,3.60
2017-07-20T18:40:54.986Z,3.70
2017-07-20T18:43:21.053Z,4.87
2017-07-20T18:45:47.101Z,3.90
2017-07-20T18:48:13.920Z,3.43
2017-07-20T18:50:39.979Z,3.60
2017-07-20T18:53:06.043Z,4.17
2017-07-20T18:55:32.098Z,4.73
2017-07-20T18:57:58.215Z,4.50
2017-07-20T19:00:24.269Z,4.90
2017-07-20T19:02:51.082Z,4.57
2017-07-20T19:05:17.162Z,5.20
2017-07-20T19:07:43.227Z,5.00
2017-07-20T19:10:09.269Z,5.27
2017-07-20T19:12:35.330Z,4.70
2017-07-20T19:15:01.382Z,5.47
2017-07-20T19:17:27.451Z,5.10
2017-07-20T19:19:53.493Z,5.30
2017-07-20T19:22:19.554Z,5.70
2017-07-20T19:24:45.596Z,5.60
2017-07-20T19:27:11.676Z,5.90
2017-07-20T19:29:37.731Z,5.67
2017-07-20T19:32:03.815Z,5.37
2017-07-20T19:34:29.889Z,5.30
2017-07-20T19:36:55.951Z,5.47
2017-07-20T19:39:22.000Z,6.33
2017-07-20T19:41:48.074Z,6.20
2017-07-20T19:44:14.147Z,6.60
2017-07-20T19:46:40.214Z,6.90
2017-07-20T19:49:06.265Z,6.40
2017-07-20T19:51:32.310Z,6.60
2017-07-20T19:53:58.389Z,6.70
2017-07-20T19:56:24.469Z,6.27
2017-07-20T19:58:50.526Z,6.53
2017-07-20T20:01:16.573Z,6.40
2017-07-20T20:03:42.631Z,6.67
2017-07-20T20:06:08.702Z,7.10
2017-07-20T20:08:34.770Z,6.73
2017-07-20T20:11:01.558Z,6.53
2017-07-20T20:13:27.639Z,6.37
2017-07-20T20:15:53.682Z,6.57
2017-07-20T20:18:19.750Z,7.17
2017-07-20T20:20:45.802Z,7.47
2017-07-20T20:23:12.602Z,6.57
2017-07-20T20:25:38.650Z,7.60
2017-07-20T20:28:04.710Z,7.17
2017-07-20T20:30:30.768Z,7.27
2017-07-20T20:32:56.877Z,7.30
2017-07-20T20:35:22.917Z,7.97
2017-07-20T20:37:48.958Z,7.73
2017-07-20T20:40:15.017Z,7.97
2017-07-20T20:42:41.871Z,8.77
2017-07-20T20:45:07.954Z,8.03
2017-07-20T20:47:34.026Z,7.70
2017-07-20T20:50:00.102Z,7.30
2017-07-20T20:52:26.146Z,8.07
2017-07-20T20:54:52.972Z,7.83
2017-07-20T20:57:19.062Z,8.00
2017-07-20T20:59:45.141Z,7.60
2017-07-20T21:02:11.943Z,7.57
2017-07-20T21:04:38.058Z,8.40
2017-07-20T21:07:04.102Z,7.77
2017-07-20T21:09:30.207Z,7.27
2017-07-20T21:11:56.355Z,7.07
2017-07-20T21:14:22.414Z,7.33
2017-07-20T21:16:48.506Z,7.90
2017-07-20T21:19:14.550Z,6.83
2017-07-20T21:21:40.610Z,7.43
2017-07-20T21:24:07.899Z,7.30
2017-07-20T21:26:33.970Z,7.37
2017-07-20T21:29:00.022Z,7.10
2017-07-20T21:31:26.101Z,7.00
2017-07-20T21:33:52.382Z,7.00
2017-07-20T21:36:18.451Z,6.90
2017-07-20T21:38:44.519Z,6.90
2017-07-20T21:41:10.621Z,7.20
2017-07-20T21:43:36.678Z,8.43
2017-07-20T21:46:02.739Z,7.23
2017-07-20T21:48:28.806Z,6.63
2017-07-20T21:50:54.873Z,7.73
2017-07-20T21:53:20.934Z,6.93
2017-07-20T21:55:47.759Z,7.37
2017-07-20T21:58:14.561Z,7.03
2017-07-20T22:00:40.631Z,7.77
2017-07-20T22:03:06.670Z,7.77
2017-07-20T22:05:33.482Z,7.30
2017-07-20T22:07:59.631Z,7.30
2017-07-20T22:10:25.839Z,7.90
2017-07-20T22:12:52.759Z,8.03
2017-07-20T22:15:18.974Z,8.10
2017-07-20T22:17:45.157Z,8.10
2017-07-20T22:20:12.111Z,8.37
2017-07-20T22:22:39.018Z,9.20
2017-07-20T22:25:05.222Z,8.37
2017-07-20T22:27:31.437Z,8.80
2017-07-20T22:29:57.628Z,8.37
2017-07-20T22:32:23.801Z,8.53
2017-07-20T22:34:49.978Z,8.63
2017-07-20T22:37:16.880Z,9.03
2017-07-20T22:39:43.098Z,7.77
2017-07-20T22:42:09.289Z,9.10
2017-07-20T22:44:36.225Z,9.30
2017-07-20T22:47:03.165Z,8.23
2017-07-20T22:49:30.123Z,7.60
2017-07-20T22:51:57.032Z,8.00
2017-07-20T22:54:23.202Z,7.67
2017-07-20T22:56:49.406Z,7.20
2017-07-20T22:59:15.550Z,7.47
2017-07-20T23:01:42.485Z,8.10
2017-07-20T23:04:09.401Z,7.33
2017-07-20T23:06:35.607Z,7.80
2017-07-20T23:09:01.776Z,7.40
2017-07-20T23:11:28.722Z,7.30
2017-07-20T23:13:54.926Z,7.53
2017-07-20T23:16:21.147Z,7.03
2017-07-20T23:18:47.340Z,7.53
2017-07-20T23:21:13.537Z,6.97
2017-07-20T23:23:39.715Z,8.33
2017-07-20T23:26:05.900Z,7.17
2017-07-20T23:28:32.813Z,7.17
2017-07-20T23:30:59.019Z,7.20
2017-07-20T23:33:25.202Z,7.37
2017-07-20T23:35:51.443Z,8.50
2017-07-20T23:38:17.626Z,7.80
2017-07-20T23:40:43.795Z,7.70
2017-07-20T23:43:10.008Z,7.80
2017-07-20T23:45:36.927Z,8.00
2017-07-20T23:48:03.133Z,8.00
2017-07-20T23:50:29.326Z,8.20
2017-07-20T23:52:55.513Z,6.90
2017-07-20T23:55:21.705Z,7.13
2017-07-20T23:57:47.897Z,8.03
